sensor_id;sensor_type;location;lat;lon;timestamp;P1;durP1;ratioP1;P2;durP2;ratioP2
34805;SDS011;65084;42.196;25.326;2023-04-08T00:01:02;17.73;;;13.68;;
34805;SDS011;65084;42.196;25.326;2023-04-08T00:03:30;19.42;;;13.52;;
34805;SDS011;65084;42.196;25.326;2023-04-08T00:05:58;15.05;;;13.05;;
34805;SDS011;65084;42.196;25.326;2023-04-08T00:08:27;27.15;;;14.38;;
34805;SDS011;65084;42.196;25.326;2023-04-08T00:10:54;22.55;;;14.38;;
34805;SDS011;65084;42.196;25.326;2023-04-08T00:13:22;20.63;;;13.25;;
34805;SDS011;65084;42.196;25.326;2023-04-08T00:15:50;20.13;;;13.80;;
34805;SDS011;65084;42.196;25.326;2023-04-08T00:18:18;17.70;;;14.27;;
34805;SDS011;65084;42.196;25.326;2023-04-08T00:20:45;18.80;;;13.25;;
34805;SDS011;65084;42.196;25.326;2023-04-08T00:23:12;19.15;;;12.70;;
34805;SDS011;65084;42.196;25.326;2023-04-08T00:25:40;19.20;;;13.65;;
34805;SDS011;65084;42.196;25.326;2023-04-08T00:28:07;17.35;;;13.60;;
34805;SDS011;65084;42.196;25.326;2023-04-08T00:30:34;14.60;;;12.70;;
34805;SDS011;65084;42.196;25.326;2023-04-08T00:33:03;16.45;;;13.27;;
34805;SDS011;65084;42.196;25.326;2023-04-08T00:35:31;24.67;;;13.63;;
34805;SDS011;65084;42.196;25.326;2023-04-08T00:37:58;20.25;;;14.20;;
34805;SDS011;65084;42.196;25.326;2023-04-08T00:40:25;20.42;;;13.80;;
34805;SDS011;65084;42.196;25.326;2023-04-08T00:42:53;15.68;;;13.05;;
34805;SDS011;65084;42.196;25.326;2023-04-08T00:45:23;20.30;;;14.13;;
34805;SDS011;65084;42.196;25.326;2023-04-08T00:47:50;18.88;;;14.43;;
34805;SDS011;65084;42.196;25.326;2023-04-08T00:50:19;19.90;;;14.35;;
34805;SDS011;65084;42.196;25.326;2023-04-08T00:52:46;17.83;;;13.95;;
34805;SDS011;65084;42.196;25.326;2023-04-08T00:55:13;19.65;;;13.45;;
34805;SDS011;65084;42.196;25.326;2023-04-08T00:57:41;20.27;;;13.43;;
34805;SDS011;65084;42.196;25.326;2023-04-08T01:00:08;17.83;;;13.50;;
34805;SDS011;65084;42.196;25.326;2023-04-08T01:02:38;18.77;;;12.80;;
34805;SDS011;65084;42.196;25.326;2023-04-08T01:05:06;17.58;;;13.40;;
34805;SDS011;65084;42.196;25.326;2023-04-08T01:07:37;20.38;;;13.10;;
34805;SDS011;65084;42.196;25.326;2023-04-08T01:10:10;18.35;;;13.13;;
34805;SDS011;65084;42.196;25.326;2023-04-08T01:12:39;17.67;;;13.43;;
34805;SDS011;65084;42.196;25.326;2023-04-08T01:15:09;20.45;;;13.65;;
34805;SDS011;65084;42.196;25.326;2023-04-08T01:17:37;18.48;;;12.65;;
34805;SDS011;65084;42.196;25.326;2023-04-08T01:20:04;15.80;;;12.98;;
34805;SDS011;65084;42.196;25.326;2023-04-08T01:22:35;18.00;;;13.35;;
34805;SDS011;65084;42.196;25.326;2023-04-08T01:25:05;21.77;;;13.30;;
34805;SDS011;65084;42.196;25.326;2023-04-08T01:27:36;18.60;;;13.90;;
34805;SDS011;65084;42.196;25.326;2023-04-08T01:30:04;16.17;;;12.57;;
34805;SDS011;65084;42.196;25.326;2023-04-08T01:32:32;17.52;;;13.18;;
34805;SDS011;65084;42.196;25.326;2023-04-08T01:35:00;16.50;;;12.75;;
34805;SDS011;65084;42.196;25.326;2023-04-08T01:37:28;18.73;;;13.00;;
34805;SDS011;65084;42.196;25.326;2023-04-08T01:39:56;18.52;;;13.45;;
34805;SDS011;65084;42.196;25.326;2023-04-08T01:42:25;21.90;;;13.57;;
34805;SDS011;65084;42.196;25.326;2023-04-08T01:44:55;17.33;;;13.10;;
34805;SDS011;65084;42.196;25.326;2023-04-08T01:47:23;36.88;;;13.95;;
34805;SDS011;65084;42.196;25.326;2023-04-08T01:49:51;18.98;;;12.90;;
34805;SDS011;65084;42.196;25.326;2023-04-08T01:52:19;18.77;;;12.65;;
34805;SDS011;65084;42.196;25.326;2023-04-08T01:54:46;18.50;;;13.40;;
34805;SDS011;65084;42.196;25.326;2023-04-08T01:57:15;21.58;;;13.90;;
34805;SDS011;65084;42.196;25.326;2023-04-08T01:59:43;19.75;;;14.40;;
34805;SDS011;65084;42.196;25.326;2023-04-08T02:02:15;17.60;;;13.38;;
34805;SDS011;65084;42.196;25.326;2023-04-08T02:04:45;17.90;;;13.23;;
34805;SDS011;65084;42.196;25.326;2023-04-08T02:07:13;19.73;;;13.63;;
34805;SDS011;65084;42.196;25.326;2023-04-08T02:09:40;18.17;;;13.38;;
34805;SDS011;65084;42.196;25.326;2023-04-08T02:12:07;17.67;;;13.07;;
34805;SDS011;65084;42.196;25.326;2023-04-08T02:14:35;19.23;;;13.98;;
34805;SDS011;65084;42.196;25.326;2023-04-08T02:17:04;18.77;;;13.55;;
34805;SDS011;65084;42.196;25.326;2023-04-08T02:19:38;21.63;;;13.85;;
34805;SDS011;65084;42.196;25.326;2023-04-08T02:22:09;17.20;;;13.52;;
34805;SDS011;65084;42.196;25.326;2023-04-08T02:24:38;20.08;;;13.38;;
34805;SDS011;65084;42.196;25.326;2023-04-08T02:27:06;17.42;;;13.50;;
34805;SDS011;65084;42.196;25.326;2023-04-08T02:29:35;19.77;;;13.95;;
34805;SDS011;65084;42.196;25.326;2023-04-08T02:32:03;18.98;;;13.27;;
34805;SDS011;65084;42.196;25.326;2023-04-08T02:34:31;18.35;;;13.10;;
34805;SDS011;65084;42.196;25.326;2023-04-08T02:37:01;19.05;;;13.63;;
34805;SDS011;65084;42.196;25.326;2023-04-08T02:39:31;20.70;;;13.25;;
34805;SDS011;65084;42.196;25.326;2023-04-08T02:41:58;18.45;;;13.82;;
34805;SDS011;65084;42.196;25.326;2023-04-08T02:44:26;20.15;;;13.52;;
34805;SDS011;65084;42.196;25.326;2023-04-08T02:46:53;17.08;;;12.85;;
34805;SDS011;65084;42.196;25.326;2023-04-08T02:49:20;21.27;;;13.23;;
34805;SDS011;65084;42.196;25.326;2023-04-08T02:51:47;24.25;;;14.90;;
34805;SDS011;65084;42.196;25.326;2023-04-08T02:54:16;16.73;;;13.23;;
34805;SDS011;65084;42.196;25.326;2023-04-08T02:56:43;17.60;;;13.50;;
34805;SDS011;65084;42.196;25.326;2023-04-08T02:59:11;16.42;;;12.90;;
34805;SDS011;65084;42.196;25.326;2023-04-08T03:01:38;17.25;;;13.25;;
34805;SDS011;65084;42.196;25.326;2023-04-08T03:04:05;22.33;;;14.45;;
34805;SDS011;65084;42.196;25.326;2023-04-08T03:06:32;19.52;;;13.43;;
34805;SDS011;65084;42.196;25.326;2023-04-08T03:09:00;19.73;;;14.55;;
34805;SDS011;65084;42.196;25.326;2023-04-08T03:11:28;17.95;;;13.88;;
34805;SDS011;65084;42.196;25.326;2023-04-08T03:13:56;23.50;;;13.80;;
34805;SDS011;65084;42.196;25.326;2023-04-08T03:16:23;18.65;;;13.27;;
34805;SDS011;65084;42.196;25.326;2023-04-08T03:18:50;20.95;;;13.75;;
34805;SDS011;65084;42.196;25.326;2023-04-08T03:21:18;20.35;;;14.13;;
34805;SDS011;65084;42.196;25.326;2023-04-08T03:23:45;20.67;;;13.68;;
34805;SDS011;65084;42.196;25.326;2023-04-08T03:26:12;23.17;;;14.82;;
34805;SDS011;65084;42.196;25.326;2023-04-08T03:28:41;28.10;;;14.88;;
34805;SDS011;65084;42.196;25.326;2023-04-08T03:31:08;17.88;;;13.15;;
34805;SDS011;65084;42.196;25.326;2023-04-08T03:33:36;22.40;;;14.77;;
34805;SDS011;65084;42.196;25.326;2023-04-08T03:36:03;18.60;;;14.32;;
34805;SDS011;65084;42.196;25.326;2023-04-08T03:38:31;20.73;;;14.50;;
34805;SDS011;65084;42.196;25.326;2023-04-08T03:40:59;21.90;;;13.90;;
34805;SDS011;65084;42.196;25.326;2023-04-08T03:43:26;37.17;;;14.75;;
34805;SDS011;65084;42.196;25.326;2023-04-08T03:45:55;29.40;;;14.93;;
34805;SDS011;65084;42.196;25.326;2023-04-08T03:48:22;21.05;;;14.43;;
34805;SDS011;65084;42.196;25.326;2023-04-08T03:50:50;45.00;;;14.63;;
34805;SDS011;65084;42.196;25.326;2023-04-08T03:53:17;21.77;;;13.63;;
34805;SDS011;65084;42.196;25.326;2023-04-08T03:55:44;20.13;;;13.57;;
34805;SDS011;65084;42.196;25.326;2023-04-08T03:58:11;19.63;;;13.57;;
34805;SDS011;65084;42.196;25.326;2023-04-08T04:00:39;18.75;;;14.63;;
34805;SDS011;65084;42.196;25.326;2023-04-08T04:03:08;17.58;;;14.05;;
34805;SDS011;65084;42.196;25.326;2023-04-08T04:05:37;21.63;;;15.00;;
34805;SDS011;65084;42.196;25.326;2023-04-08T04:08:04;19.65;;;14.38;;
34805;SDS011;65084;42.196;25.326;2023-04-08T04:10:33;28.05;;;21.45;;
34805;SDS011;65084;42.196;25.326;2023-04-08T04:13:00;38.85;;;25.92;;
34805;SDS011;65084;42.196;25.326;2023-04-08T04:15:27;211.85;;;108.28;;
34805;SDS011;65084;42.196;25.326;2023-04-08T04:17:55;129.88;;;75.60;;
34805;SDS011;65084;42.196;25.326;2023-04-08T04:20:23;77.72;;;51.20;;
34805;SDS011;65084;42.196;25.326;2023-04-08T04:22:51;35.42;;;26.63;;
34805;SDS011;65084;42.196;25.326;2023-04-08T04:25:18;25.55;;;17.05;;
34805;SDS011;65084;42.196;25.326;2023-04-08T04:27:45;21.95;;;14.32;;
34805;SDS011;65084;42.196;25.326;2023-04-08T04:30:13;51.00;;;15.70;;
34805;SDS011;65084;42.196;25.326;2023-04-08T04:32:40;21.85;;;14.77;;
34805;SDS011;65084;42.196;25.326;2023-04-08T04:35:08;28.63;;;14.65;;
34805;SDS011;65084;42.196;25.326;2023-04-08T04:37:36;19.95;;;14.95;;
34805;SDS011;65084;42.196;25.326;2023-04-08T04:40:04;20.45;;;15.27;;
34805;SDS011;65084;42.196;25.326;2023-04-08T04:42:32;19.63;;;14.85;;
34805;SDS011;65084;42.196;25.326;2023-04-08T04:44:59;25.05;;;15.68;;
34805;SDS011;65084;42.196;25.326;2023-04-08T04:47:26;19.83;;;14.48;;
34805;SDS011;65084;42.196;25.326;2023-04-08T04:49:56;26.55;;;16.42;;
34805;SDS011;65084;42.196;25.326;2023-04-08T04:52:23;34.25;;;17.20;;
34805;SDS011;65084;42.196;25.326;2023-04-08T04:54:52;20.33;;;15.70;;
34805;SDS011;65084;42.196;25.326;2023-04-08T04:57:19;18.27;;;15.05;;
34805;SDS011;65084;42.196;25.326;2023-04-08T04:59:47;23.38;;;15.13;;
34805;SDS011;65084;42.196;25.326;2023-04-08T05:02:14;23.33;;;15.75;;
34805;SDS011;65084;42.196;25.326;2023-04-08T05:04:41;17.63;;;14.43;;
34805;SDS011;65084;42.196;25.326;2023-04-08T05:07:09;19.02;;;14.57;;
34805;SDS011;65084;42.196;25.326;2023-04-08T05:09:36;18.35;;;13.68;;
34805;SDS011;65084;42.196;25.326;2023-04-08T05:12:05;23.38;;;13.90;;
34805;SDS011;65084;42.196;25.326;2023-04-08T05:14:32;19.60;;;14.32;;
34805;SDS011;65084;42.196;25.326;2023-04-08T05:16:59;19.00;;;14.38;;
34805;SDS011;65084;42.196;25.326;2023-04-08T05:19:27;19.98;;;15.45;;
34805;SDS011;65084;42.196;25.326;2023-04-08T05:21:54;20.25;;;14.20;;
34805;SDS011;65084;42.196;25.326;2023-04-08T05:24:21;26.88;;;14.77;;
34805;SDS011;65084;42.196;25.326;2023-04-08T05:26:49;22.90;;;14.05;;
34805;SDS011;65084;42.196;25.326;2023-04-08T05:29:18;25.92;;;14.75;;
34805;SDS011;65084;42.196;25.326;2023-04-08T05:31:46;18.30;;;14.02;;
34805;SDS011;65084;42.196;25.326;2023-04-08T05:34:13;18.15;;;14.70;;
34805;SDS011;65084;42.196;25.326;2023-04-08T05:36:46;20.80;;;14.32;;
34805;SDS011;65084;42.196;25.326;2023-04-08T05:39:16;25.92;;;20.10;;
34805;SDS011;65084;42.196;25.326;2023-04-08T05:41:43;35.65;;;25.77;;
34805;SDS011;65084;42.196;25.326;2023-04-08T05:44:10;62.22;;;40.85;;
34805;SDS011;65084;42.196;25.326;2023-04-08T05:46:39;59.85;;;29.95;;
34805;SDS011;65084;42.196;25.326;2023-04-08T05:49:06;77.28;;;50.15;;
34805;SDS011;65084;42.196;25.326;2023-04-08T05:51:33;43.03;;;30.88;;
34805;SDS011;65084;42.196;25.326;2023-04-08T05:54:01;34.55;;;22.92;;
34805;SDS011;65084;42.196;25.326;2023-04-08T05:56:28;27.83;;;19.83;;
34805;SDS011;65084;42.196;25.326;2023-04-08T05:58:56;26.75;;;17.83;;
34805;SDS011;65084;42.196;25.326;2023-04-08T06:01:23;26.50;;;18.05;;
34805;SDS011;65084;42.196;25.326;2023-04-08T06:03:52;30.15;;;18.83;;
34805;SDS011;65084;42.196;25.326;2023-04-08T06:06:20;25.60;;;18.40;;
34805;SDS011;65084;42.196;25.326;2023-04-08T06:08:48;32.17;;;18.77;;
34805;SDS011;65084;42.196;25.326;2023-04-08T06:11:15;39.20;;;23.20;;
34805;SDS011;65084;42.196;25.326;2023-04-08T06:13:43;33.45;;;21.25;;
34805;SDS011;65084;42.196;25.326;2023-04-08T06:16:10;27.25;;;18.50;;
34805;SDS011;65084;42.196;25.326;2023-04-08T06:18:37;22.60;;;16.45;;
34805;SDS011;65084;42.196;25.326;2023-04-08T06:21:06;24.15;;;16.42;;
34805;SDS011;65084;42.196;25.326;2023-04-08T06:23:33;22.35;;;15.48;;
34805;SDS011;65084;42.196;25.326;2023-04-08T06:26:01;21.42;;;14.88;;
34805;SDS011;65084;42.196;25.326;2023-04-08T06:28:28;22.33;;;15.07;;
34805;SDS011;65084;42.196;25.326;2023-04-08T06:30:56;24.08;;;16.70;;
34805;SDS011;65084;42.196;25.326;2023-04-08T06:33:23;23.08;;;15.23;;
34805;SDS011;65084;42.196;25.326;2023-04-08T06:35:50;22.98;;;15.75;;
34805;SDS011;65084;42.196;25.326;2023-04-08T06:38:19;20.65;;;15.63;;
34805;SDS011;65084;42.196;25.326;2023-04-08T06:40:46;23.48;;;16.73;;
34805;SDS011;65084;42.196;25.326;2023-04-08T06:43:14;20.38;;;15.20;;
34805;SDS011;65084;42.196;25.326;2023-04-08T06:45:41;22.35;;;15.98;;
34805;SDS011;65084;42.196;25.326;2023-04-08T06:48:08;23.30;;;16.38;;
34805;SDS011;65084;42.196;25.326;2023-04-08T06:50:36;23.95;;;16.17;;
34805;SDS011;65084;42.196;25.326;2023-04-08T06:53:03;29.50;;;16.05;;
34805;SDS011;65084;42.196;25.326;2023-04-08T06:55:32;24.67;;;16.63;;
34805;SDS011;65084;42.196;25.326;2023-04-08T06:57:59;22.58;;;15.45;;
34805;SDS011;65084;42.196;25.326;2023-04-08T07:00:26;25.90;;;16.77;;
34805;SDS011;65084;42.196;25.326;2023-04-08T07:02:54;21.30;;;16.25;;
34805;SDS011;65084;42.196;25.326;2023-04-08T07:05:21;21.83;;;16.23;;
34805;SDS011;65084;42.196;25.326;2023-04-08T07:07:48;27.13;;;15.90;;
34805;SDS011;65084;42.196;25.326;2023-04-08T07:10:16;21.40;;;15.60;;
34805;SDS011;65084;42.196;25.326;2023-04-08T07:12:44;30.70;;;16.42;;
34805;SDS011;65084;42.196;25.326;2023-04-08T07:15:12;20.95;;;15.45;;
34805;SDS011;65084;42.196;25.326;2023-04-08T07:17:39;17.65;;;14.55;;
34805;SDS011;65084;42.196;25.326;2023-04-08T07:20:07;20.95;;;15.13;;
34805;SDS011;65084;42.196;25.326;2023-04-08T07:22:34;24.20;;;14.18;;
34805;SDS011;65084;42.196;25.326;2023-04-08T07:25:02;20.40;;;15.45;;
34805;SDS011;65084;42.196;25.326;2023-04-08T07:27:29;22.15;;;14.73;;
34805;SDS011;65084;42.196;25.326;2023-04-08T07:29:58;30.45;;;15.23;;
34805;SDS011;65084;42.196;25.326;2023-04-08T07:32:25;17.80;;;15.65;;
34805;SDS011;65084;42.196;25.326;2023-04-08T07:34:53;24.40;;;15.77;;
34805;SDS011;65084;42.196;25.326;2023-04-08T07:37:20;23.15;;;14.80;;
34805;SDS011;65084;42.196;25.326;2023-04-08T07:39:47;28.13;;;16.65;;
34805;SDS011;65084;42.196;25.326;2023-04-08T07:42:15;25.73;;;15.82;;
34805;SDS011;65084;42.196;25.326;2023-04-08T07:44:42;22.45;;;16.52;;
34805;SDS011;65084;42.196;25.326;2023-04-08T07:47:11;23.08;;;15.68;;
34805;SDS011;65084;42.196;25.326;2023-04-08T07:49:38;26.15;;;15.02;;
34805;SDS011;65084;42.196;25.326;2023-04-08T07:52:06;23.70;;;15.77;;
34805;SDS011;65084;42.196;25.326;2023-04-08T07:54:33;21.63;;;15.52;;
34805;SDS011;65084;42.196;25.326;2023-04-08T07:57:00;26.35;;;15.27;;
34805;SDS011;65084;42.196;25.326;2023-04-08T07:59:28;16.80;;;15.00;;
34805;SDS011;65084;42.196;25.326;2023-04-08T08:01:56;19.52;;;15.25;;
34805;SDS011;65084;42.196;25.326;2023-04-08T08:04:25;21.58;;;16.40;;
34805;SDS011;65084;42.196;25.326;2023-04-08T08:06:52;18.65;;;15.80;;
34805;SDS011;65084;42.196;25.326;2023-04-08T08:09:19;19.60;;;15.18;;
34805;SDS011;65084;42.196;25.326;2023-04-08T08:11:47;23.33;;;15.15;;
34805;SDS011;65084;42.196;25.326;2023-04-08T08:14:14;20.75;;;15.68;;
34805;SDS011;65084;42.196;25.326;2023-04-08T08:16:41;19.30;;;15.25;;
34805;SDS011;65084;42.196;25.326;2023-04-08T08:19:09;18.85;;;14.98;;
34805;SDS011;65084;42.196;25.326;2023-04-08T08:21:39;20.35;;;14.90;;
34805;SDS011;65084;42.196;25.326;2023-04-08T08:24:06;17.90;;;14.88;;
34805;SDS011;65084;42.196;25.326;2023-04-08T08:26:34;19.08;;;14.30;;
34805;SDS011;65084;42.196;25.326;2023-04-08T08:29:02;20.13;;;14.82;;
34805;SDS011;65084;42.196;25.326;2023-04-08T08:31:30;23.65;;;15.43;;
34805;SDS011;65084;42.196;25.326;2023-04-08T08:33:57;20.05;;;15.73;;
34805;SDS011;65084;42.196;25.326;2023-04-08T08:36:25;19.90;;;14.40;;
34805;SDS011;65084;42.196;25.326;2023-04-08T08:38:54;19.45;;;14.80;;
34805;SDS011;65084;42.196;25.326;2023-04-08T08:41:21;16.15;;;14.45;;
34805;SDS011;65084;42.196;25.326;2023-04-08T08:43:48;20.27;;;16.83;;
34805;SDS011;65084;42.196;25.326;2023-04-08T08:46:16;21.92;;;17.10;;
34805;SDS011;65084;42.196;25.326;2023-04-08T08:48:44;21.13;;;14.40;;
34805;SDS011;65084;42.196;25.326;2023-04-08T08:51:11;19.05;;;14.77;;
34805;SDS011;65084;42.196;25.326;2023-04-08T08:53:39;18.95;;;14.85;;
34805;SDS011;65084;42.196;25.326;2023-04-08T08:56:10;18.10;;;13.70;;
34805;SDS011;65084;42.196;25.326;2023-04-08T08:58:37;17.42;;;13.93;;
34805;SDS011;65084;42.196;25.326;2023-04-08T09:03:55;16.93;;;13.37;;
34805;SDS011;65084;42.196;25.326;2023-04-08T09:06:32;14.60;;;12.82;;
34805;SDS011;65084;42.196;25.326;2023-04-08T09:08:59;21.02;;;13.02;;
34805;SDS011;65084;42.196;25.326;2023-04-08T09:11:31;13.63;;;12.23;;
34805;SDS011;65084;42.196;25.326;2023-04-08T09:13:58;16.55;;;12.98;;
34805;SDS011;65084;42.196;25.326;2023-04-08T09:16:25;14.32;;;12.82;;
34805;SDS011;65084;42.196;25.326;2023-04-08T09:18:53;16.25;;;13.02;;
34805;SDS011;65084;42.196;25.326;2023-04-08T09:21:21;16.67;;;12.02;;
34805;SDS011;65084;42.196;25.326;2023-04-08T09:23:51;13.43;;;12.02;;
34805;SDS011;65084;42.196;25.326;2023-04-08T09:26:19;15.63;;;11.95;;
34805;SDS011;65084;42.196;25.326;2023-04-08T09:28:58;13.73;;;12.23;;
34805;SDS011;65084;42.196;25.326;2023-04-08T09:31:26;14.13;;;12.63;;
34805;SDS011;65084;42.196;25.326;2023-04-08T09:33:54;14.20;;;11.48;;
34805;SDS011;65084;42.196;25.326;2023-04-08T09:36:22;12.63;;;11.15;;
34805;SDS011;65084;42.196;25.326;2023-04-08T09:38:50;12.13;;;10.18;;
34805;SDS011;65084;42.196;25.326;2023-04-08T09:41:18;13.32;;;9.98;;
34805;SDS011;65084;42.196;25.326;2023-04-08T09:43:48;11.48;;;10.38;;
34805;SDS011;65084;42.196;25.326;2023-04-08T09:46:17;14.07;;;10.60;;
34805;SDS011;65084;42.196;25.326;2023-04-08T09:48:53;12.25;;;10.93;;
34805;SDS011;65084;42.196;25.326;2023-04-08T09:51:22;10.55;;;9.38;;
34805;SDS011;65084;42.196;25.326;2023-04-08T09:53:52;11.77;;;9.65;;
34805;SDS011;65084;42.196;25.326;2023-04-08T09:56:22;10.48;;;9.27;;
34805;SDS011;65084;42.196;25.326;2023-04-08T09:58:51;10.25;;;9.25;;
34805;SDS011;65084;42.196;25.326;2023-04-08T10:01:23;28.90;;;25.63;;
34805;SDS011;65084;42.196;25.326;2023-04-08T10:03:53;15.27;;;13.73;;
34805;SDS011;65084;42.196;25.326;2023-04-08T10:06:23;15.15;;;11.95;;
34805;SDS011;65084;42.196;25.326;2023-04-08T10:08:54;12.00;;;10.48;;
34805;SDS011;65084;42.196;25.326;2023-04-08T10:11:22;15.73;;;10.45;;
34805;SDS011;65084;42.196;25.326;2023-04-08T10:13:49;14.85;;;10.40;;
34805;SDS011;65084;42.196;25.326;2023-04-08T10:16:17;12.00;;;10.80;;
34805;SDS011;65084;42.196;25.326;2023-04-08T10:18:46;15.60;;;10.23;;
34805;SDS011;65084;42.196;25.326;2023-04-08T10:21:38;30.35;;;17.13;;
34805;SDS011;65084;42.196;25.326;2023-04-08T10:24:08;18.08;;;11.35;;
34805;SDS011;65084;42.196;25.326;2023-04-08T10:26:39;13.25;;;10.38;;
34805;SDS011;65084;42.196;25.326;2023-04-08T10:31:52;198.47;;;26.60;;
34805;SDS011;65084;42.196;25.326;2023-04-08T10:34:21;25.17;;;16.67;;
34805;SDS011;65084;42.196;25.326;2023-04-08T10:36:49;15.90;;;12.43;;
34805;SDS011;65084;42.196;25.326;2023-04-08T10:39:17;12.10;;;9.75;;
34805;SDS011;65084;42.196;25.326;2023-04-08T10:41:45;13.38;;;11.20;;
34805;SDS011;65084;42.196;25.326;2023-04-08T10:44:16;10.25;;;8.55;;
34805;SDS011;65084;42.196;25.326;2023-04-08T10:46:43;10.02;;;8.73;;
34805;SDS011;65084;42.196;25.326;2023-04-08T10:49:11;13.57;;;8.80;;
34805;SDS011;65084;42.196;25.326;2023-04-08T10:51:40;11.95;;;10.02;;
34805;SDS011;65084;42.196;25.326;2023-04-08T10:54:08;15.95;;;11.63;;
34805;SDS011;65084;42.196;25.326;2023-04-08T10:56:42;15.32;;;11.80;;
34805;SDS011;65084;42.196;25.326;2023-04-08T10:59:09;13.38;;;11.73;;
34805;SDS011;65084;42.196;25.326;2023-04-08T11:01:37;11.95;;;9.73;;
34805;SDS011;65084;42.196;25.326;2023-04-08T11:04:06;16.83;;;12.77;;
34805;SDS011;65084;42.196;25.326;2023-04-08T11:06:37;15.40;;;11.05;;
34805;SDS011;65084;42.196;25.326;2023-04-08T11:09:06;23.60;;;18.92;;
34805;SDS011;65084;42.196;25.326;2023-04-08T11:11:33;13.25;;;11.45;;
34805;SDS011;65084;42.196;25.326;2023-04-08T11:14:01;12.73;;;9.70;;
34805;SDS011;65084;42.196;25.326;2023-04-08T11:16:28;13.23;;;10.65;;
34805;SDS011;65084;42.196;25.326;2023-04-08T11:18:56;14.30;;;11.30;;
34805;SDS011;65084;42.196;25.326;2023-04-08T11:21:24;12.80;;;9.98;;
34805;SDS011;65084;42.196;25.326;2023-04-08T11:23:53;10.55;;;9.23;;
34805;SDS011;65084;42.196;25.326;2023-04-08T11:26:22;14.90;;;10.10;;
34805;SDS011;65084;42.196;25.326;2023-04-08T11:28:51;11.48;;;10.38;;
34805;SDS011;65084;42.196;25.326;2023-04-08T11:31:18;14.93;;;12.77;;
34805;SDS011;65084;42.196;25.326;2023-04-08T11:33:46;12.57;;;9.73;;
34805;SDS011;65084;42.196;25.326;2023-04-08T11:36:16;12.43;;;10.55;;
34805;SDS011;65084;42.196;25.326;2023-04-08T11:38:43;10.88;;;9.77;;
34805;SDS011;65084;42.196;25.326;2023-04-08T11:41:12;13.98;;;12.05;;
34805;SDS011;65084;42.196;25.326;2023-04-08T11:43:50;13.65;;;10.18;;
34805;SDS011;65084;42.196;25.326;2023-04-08T11:46:18;10.35;;;9.38;;
34805;SDS011;65084;42.196;25.326;2023-04-08T11:48:58;17.48;;;10.02;;
34805;SDS011;65084;42.196;25.326;2023-04-08T11:51:26;12.05;;;9.85;;
34805;SDS011;65084;42.196;25.326;2023-04-08T11:53:53;15.38;;;10.85;;
34805;SDS011;65084;42.196;25.326;2023-04-08T11:56:21;15.75;;;10.30;;
34805;SDS011;65084;42.196;25.326;2023-04-08T11:58:49;16.35;;;9.82;;
34805;SDS011;65084;42.196;25.326;2023-04-08T12:01:18;17.38;;;15.48;;
34805;SDS011;65084;42.196;25.326;2023-04-08T12:03:53;13.40;;;10.15;;
34805;SDS011;65084;42.196;25.326;2023-04-08T12:06:20;11.00;;;9.68;;
34805;SDS011;65084;42.196;25.326;2023-04-08T12:08:48;9.57;;;8.68;;
34805;SDS011;65084;42.196;25.326;2023-04-08T12:11:15;11.07;;;9.85;;
34805;SDS011;65084;42.196;25.326;2023-04-08T12:13:43;13.73;;;12.27;;
34805;SDS011;65084;42.196;25.326;2023-04-08T12:16:10;11.45;;;9.88;;
34805;SDS011;65084;42.196;25.326;2023-04-08T12:18:39;9.60;;;8.38;;
34805;SDS011;65084;42.196;25.326;2023-04-08T12:21:06;12.20;;;9.00;;
34805;SDS011;65084;42.196;25.326;2023-04-08T12:23:34;11.38;;;9.85;;
34805;SDS011;65084;42.196;25.326;2023-04-08T12:26:01;9.75;;;8.65;;
34805;SDS011;65084;42.196;25.326;2023-04-08T12:28:28;10.55;;;8.45;;
34805;SDS011;65084;42.196;25.326;2023-04-08T12:30:56;8.75;;;7.95;;
34805;SDS011;65084;42.196;25.326;2023-04-08T12:33:23;8.93;;;8.15;;
34805;SDS011;65084;42.196;25.326;2023-04-08T12:35:52;10.52;;;9.18;;
34805;SDS011;65084;42.196;25.326;2023-04-08T12:38:19;11.57;;;8.40;;
34805;SDS011;65084;42.196;25.326;2023-04-08T12:40:46;9.77;;;8.93;;
34805;SDS011;65084;42.196;25.326;2023-04-08T12:43:13;9.15;;;8.30;;
34805;SDS011;65084;42.196;25.326;2023-04-08T12:45:41;10.23;;;7.35;;
34805;SDS011;65084;42.196;25.326;2023-04-08T12:48:09;10.57;;;7.63;;
34805;SDS011;65084;42.196;25.326;2023-04-08T12:50:36;7.55;;;6.88;;
34805;SDS011;65084;42.196;25.326;2023-04-08T12:53:05;9.27;;;7.68;;
34805;SDS011;65084;42.196;25.326;2023-04-08T12:55:32;19.98;;;8.30;;
34805;SDS011;65084;42.196;25.326;2023-04-08T12:58:00;31.02;;;7.55;;
34805;SDS011;65084;42.196;25.326;2023-04-08T13:00:27;11.00;;;7.20;;
34805;SDS011;65084;42.196;25.326;2023-04-08T13:02:55;11.02;;;8.88;;
34805;SDS011;65084;42.196;25.326;2023-04-08T13:05:22;9.38;;;7.07;;
34805;SDS011;65084;42.196;25.326;2023-04-08T13:07:49;12.95;;;10.00;;
34805;SDS011;65084;42.196;25.326;2023-04-08T13:10:18;9.80;;;7.00;;
34805;SDS011;65084;42.196;25.326;2023-04-08T13:12:45;7.70;;;7.00;;
34805;SDS011;65084;42.196;25.326;2023-04-08T13:15:12;17.17;;;6.35;;
34805;SDS011;65084;42.196;25.326;2023-04-08T13:17:40;8.70;;;6.43;;
34805;SDS011;65084;42.196;25.326;2023-04-08T13:20:08;6.30;;;5.80;;
34805;SDS011;65084;42.196;25.326;2023-04-08T13:22:35;8.90;;;6.22;;
34805;SDS011;65084;42.196;25.326;2023-04-08T13:25:05;7.22;;;6.50;;
34805;SDS011;65084;42.196;25.326;2023-04-08T13:27:34;6.53;;;5.95;;
34805;SDS011;65084;42.196;25.326;2023-04-08T13:30:01;7.10;;;6.35;;
34805;SDS011;65084;42.196;25.326;2023-04-08T13:32:28;7.65;;;6.95;;
34805;SDS011;65084;42.196;25.326;2023-04-08T13:34:56;7.95;;;6.72;;
34805;SDS011;65084;42.196;25.326;2023-04-08T13:37:23;11.18;;;7.38;;
34805;SDS011;65084;42.196;25.326;2023-04-08T13:39:51;8.27;;;7.47;;
34805;SDS011;65084;42.196;25.326;2023-04-08T13:42:18;7.97;;;7.28;;
34805;SDS011;65084;42.196;25.326;2023-04-08T13:44:47;7.88;;;7.10;;
34805;SDS011;65084;42.196;25.326;2023-04-08T13:47:14;10.52;;;8.30;;
34805;SDS011;65084;42.196;25.326;2023-04-08T13:49:42;7.88;;;7.18;;
34805;SDS011;65084;42.196;25.326;2023-04-08T13:52:09;7.85;;;7.15;;
34805;SDS011;65084;42.196;25.326;2023-04-08T13:54:37;7.20;;;6.60;;
34805;SDS011;65084;42.196;25.326;2023-04-08T13:57:04;10.45;;;7.63;;
34805;SDS011;65084;42.196;25.326;2023-04-08T13:59:32;8.95;;;8.10;;
34805;SDS011;65084;42.196;25.326;2023-04-08T14:02:01;14.48;;;8.60;;
34805;SDS011;65084;42.196;25.326;2023-04-08T14:04:28;11.93;;;8.88;;
34805;SDS011;65084;42.196;25.326;2023-04-08T14:06:55;10.05;;;8.57;;
34805;SDS011;65084;42.196;25.326;2023-04-08T14:09:23;15.18;;;8.82;;
34805;SDS011;65084;42.196;25.326;2023-04-08T14:11:50;13.48;;;9.43;;
34805;SDS011;65084;42.196;25.326;2023-04-08T14:14:17;11.98;;;9.02;;
34805;SDS011;65084;42.196;25.326;2023-04-08T14:16:45;9.43;;;7.90;;
34805;SDS011;65084;42.196;25.326;2023-04-08T14:19:14;9.95;;;7.50;;
34805;SDS011;65084;42.196;25.326;2023-04-08T14:21:41;7.13;;;6.38;;
34805;SDS011;65084;42.196;25.326;2023-04-08T14:24:08;9.23;;;7.57;;